createdAt,value
2023-05-19T00:01:55.026Z,2.70
2023-05-19T00:04:22.547Z,2.47
2023-05-19T00:06:51.130Z,2.58
2023-05-19T00:09:18.275Z,2.78
2023-05-19T00:11:45.658Z,2.80
2023-05-19T00:14:12.714Z,2.80
2023-05-19T00:16:39.925Z,2.47
2023-05-19T00:19:10.159Z,2.63
2023-05-19T00:21:40.505Z,2.60
2023-05-19T00:24:07.702Z,2.67
2023-05-19T00:26:34.815Z,2.85
2023-05-19T00:29:05.470Z,2.53
2023-05-19T00:31:34.145Z,2.38
2023-05-19T00:34:01.475Z,1.75
2023-05-19T00:36:28.842Z,2.70
2023-05-19T00:38:56.305Z,2.42
2023-05-19T00:41:23.189Z,2.55
2023-05-19T00:43:50.671Z,2.42
2023-05-19T00:46:18.427Z,2.60
2023-05-19T00:48:46.469Z,2.80
2023-05-19T00:51:16.692Z,2.20
2023-05-19T00:53:48.340Z,2.55
2023-05-19T00:56:16.581Z,2.35
2023-05-19T00:58:43.712Z,2.80
2023-05-19T01:01:12.326Z,1.92
2023-05-19T01:03:40.946Z,2.50
2023-05-19T01:06:08.310Z,2.05
2023-05-19T01:08:36.373Z,2.30
2023-05-19T01:11:07.454Z,2.30
2023-05-19T01:13:35.163Z,2.20
2023-05-19T01:16:02.129Z,1.83
2023-05-19T01:19:21.127Z,2.33
2023-05-19T01:22:13.365Z,2.20
2023-05-19T01:25:05.193Z,2.33
2023-05-19T01:28:16.218Z,2.83
2023-05-19T01:30:44.205Z,2.38
2023-05-19T01:33:14.281Z,2.53
2023-05-19T01:35:42.543Z,2.30
2023-05-19T01:38:11.540Z,2.30
2023-05-19T01:40:40.461Z,2.50
2023-05-19T01:43:09.066Z,2.05
2023-05-19T01:45:35.984Z,1.92
2023-05-19T01:48:04.797Z,2.13
2023-05-19T01:50:32.044Z,2.60
2023-05-19T01:52:59.377Z,2.20
2023-05-19T01:55:27.365Z,2.25
2023-05-19T01:58:07.442Z,2.05
2023-05-19T02:00:54.195Z,2.55
2023-05-19T02:03:33.119Z,2.75
2023-05-19T02:06:13.071Z,2.42
2023-05-19T02:08:44.591Z,2.28
2023-05-19T02:11:15.354Z,2.40
2023-05-19T02:13:43.651Z,2.45
2023-05-19T02:16:11.367Z,2.80
2023-05-19T02:18:40.071Z,2.88
2023-05-19T02:21:07.053Z,3.20
2023-05-19T02:23:33.980Z,2.55
2023-05-19T02:26:01.124Z,2.50
2023-05-19T02:28:28.529Z,2.50
2023-05-19T02:30:55.510Z,2.80
2023-05-19T02:33:24.701Z,2.83
2023-05-19T02:35:51.562Z,2.53
2023-05-19T02:38:18.426Z,2.70
2023-05-19T02:40:45.309Z,2.60
2023-05-19T02:43:12.271Z,2.83
2023-05-19T02:45:40.653Z,2.65
2023-05-19T02:48:07.549Z,3.10
2023-05-19T02:50:34.525Z,3.00
2023-05-19T02:53:02.473Z,3.03
2023-05-19T02:55:29.857Z,2.60
2023-05-19T02:57:56.816Z,2.72
2023-05-19T03:00:24.047Z,2.78
2023-05-19T03:02:52.957Z,3.08
2023-05-19T03:05:20.178Z,2.88
2023-05-19T03:07:47.562Z,2.78
2023-05-19T03:10:14.551Z,2.55
2023-05-19T03:12:41.459Z,2.75
2023-05-19T03:15:08.718Z,3.38
2023-05-19T03:17:36.452Z,3.00
2023-05-19T03:20:05.434Z,2.80
2023-05-19T03:22:32.731Z,2.95
2023-05-19T03:25:00.202Z,3.08
2023-05-19T03:27:27.124Z,2.80
2023-05-19T03:29:54.899Z,2.58
2023-05-19T03:32:22.618Z,3.13
2023-05-19T03:34:49.716Z,3.10
2023-05-19T03:37:16.854Z,3.00
2023-05-19T03:39:43.736Z,2.50
2023-05-19T03:42:10.727Z,2.10
2023-05-19T03:44:37.611Z,2.95
2023-05-19T03:47:04.840Z,3.20
2023-05-19T03:49:57.862Z,2.97
2023-05-19T03:52:48.872Z,2.90
2023-05-19T03:55:39.251Z,2.90
2023-05-19T03:58:06.554Z,3.28
2023-05-19T04:00:33.788Z,3.28
2023-05-19T04:03:01.112Z,2.55
2023-05-19T04:05:28.126Z,3.00
2023-05-19T04:07:55.157Z,3.20
2023-05-19T04:10:23.527Z,2.75
2023-05-19T04:12:50.423Z,2.80
2023-05-19T04:15:17.419Z,2.40
2023-05-19T04:17:44.799Z,2.65
2023-05-19T04:20:12.522Z,2.65
2023-05-19T04:22:39.403Z,2.58
2023-05-19T04:25:07.586Z,2.78
2023-05-19T04:27:38.920Z,2.67
2023-05-19T04:30:06.924Z,3.10
2023-05-19T04:32:34.536Z,3.10
2023-05-19T04:35:03.248Z,3.33
2023-05-19T04:37:30.282Z,2.53
2023-05-19T04:39:58.090Z,3.10
2023-05-19T04:42:30.746Z,3.13
2023-05-19T04:44:59.417Z,2.88
2023-05-19T04:47:30.112Z,3.00
2023-05-19T04:49:57.677Z,3.25
2023-05-19T04:52:24.780Z,3.38
2023-05-19T04:54:51.819Z,3.03
2023-05-19T04:57:19.021Z,2.65
2023-05-19T04:59:46.392Z,2.90
2023-05-19T05:02:13.519Z,3.33
2023-05-19T05:04:43.493Z,2.90
2023-05-19T05:07:10.811Z,2.92
2023-05-19T05:09:38.556Z,2.92
2023-05-19T05:12:07.900Z,2.85
2023-05-19T05:14:36.574Z,2.85
2023-05-19T05:17:03.855Z,3.13
2023-05-19T05:19:32.303Z,2.70
2023-05-19T05:21:59.810Z,2.83
2023-05-19T05:24:27.208Z,2.67
2023-05-19T05:26:59.086Z,2.70
2023-05-19T05:29:26.437Z,3.20
2023-05-19T05:31:53.600Z,2.97
2023-05-19T05:34:20.703Z,3.20
2023-05-19T05:36:47.604Z,3.17
2023-05-19T05:39:14.854Z,3.97
2023-05-19T05:41:44.229Z,4.05
2023-05-19T05:44:12.612Z,3.70
2023-05-19T05:46:42.016Z,3.85
2023-05-19T05:49:10.208Z,4.40
2023-05-19T05:51:37.379Z,3.58
2023-05-19T05:54:04.737Z,3.95
2023-05-19T05:56:37.421Z,3.78
2023-05-19T05:59:07.248Z,4.32
2023-05-19T06:01:36.616Z,5.10
2023-05-19T06:04:05.542Z,3.60
2023-05-19T06:06:32.948Z,4.05
2023-05-19T06:09:01.972Z,3.88
2023-05-19T06:11:29.710Z,10.25
2023-05-19T06:13:58.542Z,4.65
2023-05-19T06:16:57.656Z,4.15
2023-05-19T06:19:25.604Z,4.45
2023-05-19T06:21:52.950Z,3.63
2023-05-19T06:24:19.946Z,4.60
2023-05-19T06:26:47.853Z,4.00
2023-05-19T06:29:17.262Z,4.85
2023-05-19T06:31:44.750Z,4.70
2023-05-19T06:34:17.616Z,4.20
2023-05-19T06:36:46.655Z,4.30
2023-05-19T06:39:16.198Z,4.45
2023-05-19T06:41:43.235Z,5.38
2023-05-19T06:44:10.950Z,4.57
2023-05-19T06:46:40.170Z,3.97
2023-05-19T06:49:07.175Z,4.63
2023-05-19T06:51:39.879Z,4.35
2023-05-19T06:54:06.976Z,3.95
2023-05-19T06:56:33.866Z,4.82
2023-05-19T06:59:00.823Z,4.05
2023-05-19T07:01:34.343Z,3.65
2023-05-19T07:04:01.981Z,4.30
2023-05-19T07:06:30.031Z,3.88
2023-05-19T07:08:57.575Z,4.07
2023-05-19T07:11:25.208Z,4.72
2023-05-19T07:13:52.157Z,3.53
2023-05-19T07:16:24.932Z,3.83
2023-05-19T07:18:51.931Z,4.00
2023-05-19T07:21:18.871Z,3.70
2023-05-19T07:23:47.115Z,3.83
2023-05-19T07:26:13.994Z,3.72
2023-05-19T07:28:42.559Z,3.47
2023-05-19T07:31:09.908Z,3.90
2023-05-19T07:33:36.826Z,3.60
2023-05-19T07:36:04.453Z,4.05
2023-05-19T07:38:34.495Z,3.95
2023-05-19T07:41:02.111Z,4.20
2023-05-19T07:43:29.023Z,3.63
2023-05-19T07:45:56.492Z,4.38
2023-05-19T07:48:25.641Z,4.18
2023-05-19T07:50:52.931Z,3.75
2023-05-19T07:53:20.081Z,3.67
2023-05-19T07:55:47.052Z,3.38
2023-05-19T07:58:14.022Z,3.30
2023-05-19T08:00:43.485Z,3.90
2023-05-19T08:03:10.712Z,4.32
2023-05-19T08:05:37.915Z,3.63
2023-05-19T08:08:05.142Z,3.83
2023-05-19T08:10:32.241Z,4.18
2023-05-19T08:12:59.270Z,3.75
2023-05-19T08:15:26.431Z,3.65
2023-05-19T08:17:53.431Z,3.83
2023-05-19T08:20:20.613Z,3.30
2023-05-19T08:22:47.484Z,3.83
2023-05-19T08:25:14.996Z,3.47
2023-05-19T08:27:41.862Z,3.47
2023-05-19T08:30:09.444Z,3.47
2023-05-19T08:32:43.558Z,2.90
2023-05-19T08:35:22.441Z,3.42
2023-05-19T08:38:01.653Z,2.70
2023-05-19T08:40:32.040Z,3.47
2023-05-19T08:42:59.053Z,3.17
2023-05-19T08:45:26.402Z,3.45
2023-05-19T08:47:53.332Z,3.22
2023-05-19T08:50:30.774Z,3.95
2023-05-19T08:53:04.812Z,3.25
2023-05-19T08:55:41.294Z,3.45
2023-05-19T08:58:08.218Z,3.50
2023-05-19T09:00:35.362Z,3.22
2023-05-19T09:03:17.700Z,3.70
2023-05-19T09:05:49.619Z,3.72
2023-05-19T09:08:16.655Z,3.38
2023-05-19T09:10:43.531Z,3.85
2023-05-19T09:13:12.080Z,3.75
2023-05-19T09:15:39.223Z,3.80
2023-05-19T09:18:13.480Z,3.50
2023-05-19T09:20:41.580Z,3.38
2023-05-19T09:23:08.676Z,4.53
2023-05-19T09:25:35.739Z,3.50
2023-05-19T09:28:02.734Z,3.78
2023-05-19T09:30:29.669Z,4.05
2023-05-19T09:32:56.593Z,3.97
2023-05-19T09:35:23.541Z,3.67
2023-05-19T09:37:50.417Z,3.33
2023-05-19T09:40:17.345Z,3.22
2023-05-19T09:42:44.416Z,3.05
2023-05-19T09:45:12.165Z,3.00
2023-05-19T09:47:40.095Z,3.80
2023-05-19T09:50:09.109Z,3.38
2023-05-19T09:52:39.986Z,2.97
2023-05-19T09:55:13.060Z,3.33
2023-05-19T09:57:40.797Z,3.13
2023-05-19T10:00:12.067Z,3.25
2023-05-19T10:02:41.779Z,3.85
2023-05-19T10:05:17.563Z,3.83
2023-05-19T10:07:45.933Z,3.85
2023-05-19T10:10:13.998Z,4.47
2023-05-19T10:12:41.100Z,5.50
2023-05-19T10:15:12.509Z,3.95
2023-05-19T10:17:40.792Z,4.47
2023-05-19T10:20:14.919Z,3.47
2023-05-19T10:22:42.945Z,3.58
2023-05-19T10:25:10.736Z,3.28
2023-05-19T10:28:04.770Z,3.65
2023-05-19T10:30:34.992Z,3.83
2023-05-19T10:33:01.948Z,3.53
2023-05-19T10:35:57.651Z,3.50
2023-05-19T10:39:14.098Z,3.35
2023-05-19T10:41:55.768Z,2.95
2023-05-19T10:44:47.069Z,2.92
2023-05-19T10:47:14.077Z,3.47
2023-05-19T10:49:41.124Z,3.83
2023-05-19T10:52:21.520Z,3.92
2023-05-19T10:54:48.570Z,3.50
2023-05-19T10:57:18.733Z,3.75
2023-05-19T10:59:45.794Z,4.13
2023-05-19T11:02:42.380Z,3.47
2023-05-19T11:05:14.916Z,3.47
2023-05-19T11:07:43.844Z,3.20
2023-05-19T11:10:11.276Z,4.55
2023-05-19T11:12:45.541Z,3.20
2023-05-19T11:15:15.808Z,3.60
2023-05-19T11:17:45.300Z,3.35
2023-05-19T11:20:25.850Z,3.40
2023-05-19T11:23:15.187Z,3.90
2023-05-19T11:25:46.856Z,3.25
2023-05-19T11:28:19.660Z,3.55
2023-05-19T11:30:50.626Z,3.22
2023-05-19T11:33:19.441Z,3.10
2023-05-19T11:35:50.420Z,3.78
2023-05-19T11:38:18.624Z,3.88
2023-05-19T11:40:45.913Z,3.25
2023-05-19T11:43:12.828Z,3.10
2023-05-19T11:45:39.769Z,2.78
2023-05-19T11:48:07.134Z,3.53
2023-05-19T11:50:35.353Z,3.58
2023-05-19T11:53:02.577Z,3.10
2023-05-19T11:55:30.335Z,3.28
2023-05-19T11:58:04.600Z,3.40
2023-05-19T12:00:37.767Z,3.42
2023-05-19T12:03:05.089Z,3.58
2023-05-19T12:05:34.925Z,3.53
2023-05-19T12:08:03.188Z,3.38
2023-05-19T12:10:31.130Z,3.30
2023-05-19T12:12:58.618Z,3.50
2023-05-19T12:15:25.978Z,3.50
2023-05-19T12:18:00.277Z,3.10
2023-05-19T12:20:28.791Z,3.03
2023-05-19T12:22:55.992Z,3.08
2023-05-19T12:25:23.512Z,3.75
2023-05-19T12:27:52.757Z,3.05
2023-05-19T12:30:25.144Z,3.78
2023-05-19T12:32:53.958Z,3.40
2023-05-19T12:35:20.923Z,3.35
2023-05-19T12:37:49.202Z,3.30
2023-05-19T12:40:16.885Z,3.30
2023-05-19T12:42:48.755Z,3.42
2023-05-19T12:45:15.707Z,3.83
2023-05-19T12:47:42.653Z,3.28
2023-05-19T12:50:10.329Z,3.00
2023-05-19T12:52:45.153Z,3.70
2023-05-19T12:55:12.588Z,3.17
2023-05-19T12:57:40.872Z,3.45
2023-05-19T13:00:17.670Z,2.85
2023-05-19T13:03:00.186Z,3.22
2023-05-19T13:05:28.251Z,3.83
2023-05-19T13:07:59.112Z,3.55
2023-05-19T13:10:29.458Z,3.20
2023-05-19T13:12:56.520Z,3.35
2023-05-19T13:15:27.012Z,3.10
2023-05-19T13:17:54.266Z,2.88
2023-05-19T13:20:21.757Z,3.20
2023-05-19T13:22:48.899Z,3.25
2023-05-19T13:25:16.033Z,3.45
2023-05-19T13:27:44.392Z,2.50
2023-05-19T13:30:11.743Z,2.80
2023-05-19T13:32:38.723Z,2.90
2023-05-19T13:35:06.686Z,3.15
2023-05-19T13:37:33.748Z,3.72
2023-05-19T13:40:00.701Z,3.05
2023-05-19T13:42:28.198Z,2.85
2023-05-19T13:44:56.226Z,2.58
2023-05-19T13:47:23.812Z,2.70
2023-05-19T13:49:51.211Z,3.08
2023-05-19T13:52:18.521Z,2.75
2023-05-19T13:54:45.477Z,3.17
2023-05-19T13:57:12.398Z,3.20
2023-05-19T13:59:52.819Z,3.00
2023-05-19T14:02:26.582Z,2.72
2023-05-19T14:04:53.625Z,3.10
2023-05-19T14:07:21.250Z,2.97
2023-05-19T14:09:48.197Z,3.15
2023-05-19T14:12:15.484Z,2.63
2023-05-19T14:14:42.470Z,2.80
2023-05-19T14:17:09.462Z,3.08
2023-05-19T14:19:36.429Z,3.20
2023-05-19T14:22:03.457Z,3.13
2023-05-19T14:24:30.803Z,2.92
2023-05-19T14:26:57.735Z,2.97
2023-05-19T14:29:24.861Z,3.22
2023-05-19T14:31:51.843Z,3.00
2023-05-19T14:34:21.134Z,3.70
2023-05-19T14:36:48.771Z,2.97
2023-05-19T14:39:15.773Z,3.03
2023-05-19T14:41:42.707Z,2.95
2023-05-19T14:44:09.592Z,3.35
2023-05-19T14:46:36.836Z,3.13
2023-05-19T14:49:04.266Z,3.15
2023-05-19T14:51:31.701Z,2.67
2023-05-19T14:53:58.740Z,3.03
2023-05-19T14:56:26.358Z,2.92
2023-05-19T14:58:53.364Z,2.58
2023-05-19T15:01:20.455Z,3.08
2023-05-19T15:03:47.611Z,3.45
2023-05-19T15:06:14.711Z,3.13
2023-05-19T15:08:41.782Z,3.53
2023-05-19T15:11:08.787Z,3.28
2023-05-19T15:13:35.834Z,3.42
2023-05-19T15:16:16.120Z,3.10
2023-05-19T15:18:44.387Z,3.55
2023-05-19T15:21:11.477Z,3.90
2023-05-19T15:23:38.394Z,3.60
2023-05-19T15:26:05.461Z,4.32
2023-05-19T15:28:32.489Z,3.67
2023-05-19T15:30:59.414Z,3.28
2023-05-19T15:33:26.391Z,3.58
2023-05-19T15:35:53.356Z,3.53
2023-05-19T15:38:20.559Z,3.33
2023-05-19T15:40:47.490Z,3.60
2023-05-19T15:43:14.442Z,3.40
2023-05-19T15:45:41.376Z,3.63
2023-05-19T15:48:08.461Z,3.08
2023-05-19T15:50:35.979Z,3.22
2023-05-19T15:53:03.497Z,2.85
2023-05-19T15:55:30.544Z,3.65
2023-05-19T15:57:57.461Z,2.95
2023-05-19T16:00:24.406Z,3.00
2023-05-19T16:02:51.391Z,3.13
2023-05-19T16:05:18.582Z,2.85
2023-05-19T16:07:45.510Z,3.10
2023-05-19T16:10:12.397Z,3.13
2023-05-19T16:12:39.324Z,3.45
2023-05-19T16:15:06.831Z,3.03
2023-05-19T16:17:33.935Z,3.13
2023-05-19T16:20:00.864Z,3.20
2023-05-19T16:22:27.714Z,3.30
2023-05-19T16:24:54.680Z,3.13
2023-05-19T16:27:21.659Z,3.20
2023-05-19T16:29:48.646Z,3.10
2023-05-19T16:32:15.660Z,3.22
2023-05-19T16:34:42.903Z,3.28
2023-05-19T16:37:09.867Z,3.08
2023-05-19T16:39:37.602Z,3.55
2023-05-19T16:42:05.038Z,3.13
2023-05-19T16:44:32.012Z,3.45
2023-05-19T16:46:58.968Z,3.40
2023-05-19T16:49:25.925Z,3.25
2023-05-19T16:51:53.215Z,3.00
2023-05-19T16:54:21.190Z,3.38
2023-05-19T16:56:48.156Z,3.20
2023-05-19T16:59:15.159Z,3.47
2023-05-19T17:01:42.253Z,3.53
2023-05-19T17:04:09.287Z,3.30
2023-05-19T17:06:36.212Z,3.65
2023-05-19T17:09:03.837Z,3.70
2023-05-19T17:11:30.820Z,3.50
2023-05-19T17:13:57.680Z,3.10
2023-05-19T17:16:24.819Z,3.45
2023-05-19T17:18:51.843Z,3.08
2023-05-19T17:21:19.016Z,3.10
2023-05-19T17:23:46.028Z,3.60
2023-05-19T17:26:12.996Z,2.78
2023-05-19T17:28:39.903Z,3.75
2023-05-19T17:31:16.248Z,3.47
2023-05-19T17:33:43.224Z,2.97
2023-05-19T17:36:10.134Z,3.30
2023-05-19T17:38:40.344Z,3.25
2023-05-19T17:41:10.435Z,3.85
2023-05-19T17:43:38.028Z,3.92
2023-05-19T17:46:05.157Z,3.95
2023-05-19T17:48:32.171Z,3.90
2023-05-19T17:50:59.206Z,3.78
2023-05-19T17:53:26.425Z,3.80
2023-05-19T17:55:57.548Z,4.38
2023-05-19T17:58:24.647Z,4.13
2023-05-19T18:00:51.827Z,3.42
2023-05-19T18:03:18.953Z,3.25
2023-05-19T18:05:46.209Z,3.42
2023-05-19T18:08:13.636Z,4.10
2023-05-19T18:10:41.788Z,3.10
2023-05-19T18:13:09.423Z,3.50
2023-05-19T18:15:36.517Z,3.83
2023-05-19T18:18:05.635Z,3.70
2023-05-19T18:20:33.980Z,3.47
2023-05-19T18:23:01.552Z,3.47
2023-05-19T18:25:28.742Z,3.40
2023-05-19T18:27:55.924Z,3.20
2023-05-19T18:30:23.399Z,3.40
2023-05-19T18:32:50.348Z,3.42
2023-05-19T18:35:17.351Z,3.42
2023-05-19T18:37:44.299Z,3.90
2023-05-19T18:40:11.301Z,4.10
2023-05-19T18:42:38.243Z,3.38
2023-05-19T18:45:06.297Z,3.35
2023-05-19T18:47:33.306Z,3.67
2023-05-19T18:50:00.332Z,3.33
2023-05-19T18:52:28.687Z,3.83
2023-05-19T18:54:55.828Z,3.15
2023-05-19T18:57:22.769Z,3.40
2023-05-19T18:59:49.663Z,4.00
2023-05-19T19:02:16.601Z,3.88
2023-05-19T19:04:45.281Z,3.92
2023-05-19T19:07:12.354Z,4.57
2023-05-19T19:09:39.576Z,4.35
2023-05-19T19:12:06.862Z,3.50
2023-05-19T19:14:33.776Z,3.88
2023-05-19T19:17:00.763Z,4.32
2023-05-19T19:19:30.032Z,4.57
2023-05-19T19:21:57.100Z,3.78
2023-05-19T19:24:25.158Z,4.13
2023-05-19T19:26:52.129Z,4.70
2023-05-19T19:29:21.864Z,4.15
2023-05-19T19:31:49.205Z,3.50
2023-05-19T19:34:17.807Z,4.78
2023-05-19T19:36:44.958Z,4.70
2023-05-19T19:39:12.075Z,3.88
2023-05-19T19:41:40.957Z,4.63
2023-05-19T19:44:07.995Z,4.50
2023-05-19T19:46:35.033Z,4.68
2023-05-19T19:49:01.978Z,4.28
2023-05-19T19:51:28.918Z,4.97
2023-05-19T19:53:55.945Z,4.28
2023-05-19T19:56:24.684Z,4.68
2023-05-19T19:58:51.653Z,4.18
2023-05-19T20:01:20.605Z,4.53
2023-05-19T20:03:48.054Z,4.10
2023-05-19T20:06:15.108Z,4.85
2023-05-19T20:08:42.005Z,4.88
2023-05-19T20:11:09.041Z,5.13
2023-05-19T20:13:35.911Z,5.10
2023-05-19T20:16:02.953Z,5.00
2023-05-19T20:18:30.069Z,4.93
2023-05-19T20:20:57.188Z,4.93
2023-05-19T20:23:24.025Z,5.18
2023-05-19T20:26:10.128Z,5.80
2023-05-19T20:28:37.545Z,5.30
2023-05-19T20:31:05.065Z,5.25
2023-05-19T20:33:32.403Z,5.15
2023-05-19T20:35:59.455Z,5.10
2023-05-19T20:38:26.420Z,5.28
2023-05-19T20:40:54.338Z,4.75
2023-05-19T20:43:21.358Z,4.63
2023-05-19T20:45:48.335Z,4.53
2023-05-19T20:48:18.197Z,5.60
2023-05-19T20:50:45.140Z,4.88
2023-05-19T20:53:12.041Z,5.80
2023-05-19T20:55:39.176Z,5.00
2023-05-19T20:58:06.339Z,5.00
2023-05-19T21:00:33.783Z,4.95
2023-05-19T21:03:01.634Z,5.47
2023-05-19T21:05:28.667Z,4.55
2023-05-19T21:07:55.556Z,5.80
2023-05-19T21:10:22.447Z,5.18
2023-05-19T21:12:49.403Z,4.80
2023-05-19T21:15:16.488Z,5.00
2023-05-19T21:17:43.434Z,5.25
2023-05-19T21:20:10.777Z,5.00
2023-05-19T21:22:37.685Z,5.13
2023-05-19T21:25:05.059Z,4.35
2023-05-19T21:27:32.968Z,5.05
2023-05-19T21:30:00.215Z,5.07
2023-05-19T21:32:29.538Z,6.53
2023-05-19T21:34:56.548Z,4.93
2023-05-19T21:37:23.487Z,5.15
2023-05-19T21:39:50.466Z,4.70
2023-05-19T21:42:17.968Z,5.22
2023-05-19T21:44:44.874Z,4.93
2023-05-19T21:47:11.736Z,5.00
2023-05-19T21:49:40.162Z,4.85
2023-05-19T21:52:10.369Z,4.65
2023-05-19T21:54:37.436Z,4.97
2023-05-19T21:57:04.632Z,4.57
2023-05-19T21:59:31.555Z,4.00
2023-05-19T22:01:58.876Z,4.68
2023-05-19T22:04:25.916Z,5.20
2023-05-19T22:06:52.816Z,5.00
2023-05-19T22:09:19.762Z,4.80
2023-05-19T22:11:46.646Z,4.20
2023-05-19T22:14:14.048Z,4.47
2023-05-19T22:16:41.172Z,4.43
2023-05-19T22:19:08.239Z,4.82
2023-05-19T22:21:35.223Z,3.80
2023-05-19T22:24:02.287Z,4.35
2023-05-19T22:26:29.226Z,4.60
2023-05-19T22:28:56.600Z,4.25
2023-05-19T22:31:23.568Z,4.38
2023-05-19T22:33:50.653Z,4.72
2023-05-19T22:36:17.697Z,4.03
2023-05-19T22:38:44.649Z,4.70
2023-05-19T22:41:11.559Z,4.22
2023-05-19T22:43:38.536Z,4.43
2023-05-19T22:46:05.549Z,4.95
2023-05-19T22:48:32.471Z,4.57
2023-05-19T22:50:59.329Z,4.38
2023-05-19T22:53:26.274Z,4.82
2023-05-19T22:55:53.156Z,4.50
2023-05-19T22:58:20.067Z,4.90
2023-05-19T23:00:47.011Z,4.68
2023-05-19T23:03:14.408Z,4.45
2023-05-19T23:05:41.415Z,4.70
2023-05-19T23:08:08.323Z,4.40
2023-05-19T23:10:35.291Z,4.50
2023-05-19T23:13:02.359Z,4.80
2023-05-19T23:15:29.588Z,4.95
2023-05-19T23:17:56.586Z,5.22
2023-05-19T23:20:23.544Z,4.63
2023-05-19T23:22:50.424Z,4.88
2023-05-19T23:25:17.339Z,4.78
2023-05-19T23:27:44.201Z,5.40
2023-05-19T23:30:11.327Z,4.72
2023-05-19T23:32:38.294Z,5.03
2023-05-19T23:35:15.932Z,4.75
2023-05-19T23:37:42.854Z,4.80
2023-05-19T23:40:10.356Z,4.90
2023-05-19T23:42:37.268Z,5.15
2023-05-19T23:45:04.624Z,4.85
2023-05-19T23:47:31.546Z,5.03
2023-05-19T23:49:58.462Z,4.80
2023-05-19T23:52:25.394Z,5.18
2023-05-19T23:54:52.294Z,5.70
2023-05-19T23:57:19.273Z,4.55
2023-05-19T23:59:46.264Z,5.72
